createdAt,value
2023-01-21T00:01:06.838Z,4.78
2023-01-21T00:03:34.112Z,4.57
2023-01-21T00:06:00.939Z,4.90
2023-01-21T00:08:27.795Z,5.20
2023-01-21T00:10:54.828Z,4.75
2023-01-21T00:13:23.540Z,4.25
2023-01-21T00:15:53.138Z,4.22
2023-01-21T00:18:22.679Z,4.28
2023-01-21T00:20:49.458Z,4.78
2023-01-21T00:23:16.260Z,3.80
2023-01-21T00:25:42.992Z,4.38
2023-01-21T00:28:09.868Z,4.00
2023-01-21T00:30:40.930Z,3.53
2023-01-21T00:33:08.370Z,2.90
2023-01-21T00:35:35.139Z,3.47
2023-01-21T00:38:01.898Z,3.25
2023-01-21T00:40:28.718Z,3.15
2023-01-21T00:42:55.462Z,3.40
2023-01-21T00:45:22.424Z,2.90
2023-01-21T00:47:49.433Z,3.13
2023-01-21T00:50:16.657Z,2.97
2023-01-21T00:52:43.736Z,2.67
2023-01-21T00:55:10.493Z,3.42
2023-01-21T00:57:37.245Z,2.80
2023-01-21T01:00:04.879Z,2.70
2023-01-21T01:02:31.605Z,3.00
2023-01-21T01:04:58.356Z,2.67
2023-01-21T01:07:25.274Z,2.88
2023-01-21T01:09:52.125Z,2.65
2023-01-21T01:12:18.960Z,2.88
2023-01-21T01:14:46.878Z,2.90
2023-01-21T01:17:13.561Z,2.65
2023-01-21T01:19:40.288Z,2.85
2023-01-21T01:22:07.073Z,2.80
2023-01-21T01:24:33.754Z,2.85
2023-01-21T01:27:00.433Z,2.78
2023-01-21T01:29:30.863Z,3.20
2023-01-21T01:31:57.546Z,3.60
2023-01-21T01:34:24.304Z,3.15
2023-01-21T01:36:51.162Z,3.15
2023-01-21T01:39:18.031Z,3.45
2023-01-21T01:41:44.826Z,3.55
2023-01-21T01:44:48.896Z,2.63
2023-01-21T01:47:16.309Z,3.63
2023-01-21T01:49:43.211Z,2.83
2023-01-21T01:52:12.140Z,2.67
2023-01-21T01:54:45.835Z,2.50
2023-01-21T01:57:15.915Z,3.42
2023-01-21T01:59:43.791Z,2.67
2023-01-21T02:02:14.869Z,2.20
2023-01-21T02:04:55.242Z,2.83
2023-01-21T02:07:24.857Z,3.55
2023-01-21T02:09:55.711Z,3.20
2023-01-21T02:12:27.501Z,2.97
2023-01-21T02:14:54.320Z,2.80
2023-01-21T02:17:48.327Z,2.67
2023-01-21T02:20:30.272Z,2.80
2023-01-21T02:23:26.153Z,2.60
2023-01-21T02:25:57.694Z,2.90
2023-01-21T02:28:30.309Z,2.58
2023-01-21T02:31:03.013Z,2.65
2023-01-21T02:33:33.226Z,2.30
2023-01-21T02:36:23.935Z,2.35
2023-01-21T02:39:35.498Z,2.72
2023-01-21T02:42:18.705Z,2.90
2023-01-21T02:45:03.917Z,2.75
2023-01-21T02:47:41.242Z,2.65
2023-01-21T02:50:44.971Z,2.85
2023-01-21T02:53:28.278Z,2.38
2023-01-21T02:56:02.737Z,2.35
2023-01-21T02:58:34.028Z,2.10
2023-01-21T03:01:34.983Z,2.95
2023-01-21T03:04:22.717Z,2.13
2023-01-21T03:06:58.362Z,2.53
2023-01-21T03:09:33.553Z,2.83
2023-01-21T03:12:10.445Z,2.95
2023-01-21T03:15:08.039Z,2.00
2023-01-21T03:17:41.640Z,2.50
2023-01-21T03:20:12.977Z,2.03
2023-01-21T03:22:40.759Z,1.85
2023-01-21T03:25:09.853Z,1.85
2023-01-21T03:27:39.794Z,1.67
2023-01-21T03:30:13.526Z,2.03
2023-01-21T03:32:43.466Z,2.40
2023-01-21T03:35:12.651Z,1.73
2023-01-21T03:37:48.831Z,1.70
2023-01-21T03:40:26.321Z,1.58
2023-01-21T03:42:56.229Z,1.58
2023-01-21T03:45:59.857Z,1.52
2023-01-21T03:48:31.983Z,2.00
2023-01-21T03:51:08.264Z,1.58
2023-01-21T03:53:37.963Z,1.58
2023-01-21T03:56:06.460Z,1.58
2023-01-21T03:58:33.487Z,1.30
2023-01-21T04:01:00.397Z,1.90
2023-01-21T04:03:27.179Z,1.80
2023-01-21T04:05:54.362Z,2.75
2023-01-21T04:08:25.226Z,1.58
2023-01-21T04:10:53.178Z,1.20
2023-01-21T04:13:19.979Z,1.63
2023-01-21T04:15:46.660Z,1.73
2023-01-21T04:18:13.359Z,1.83
2023-01-21T04:20:40.162Z,1.70
2023-01-21T04:23:06.855Z,1.75
2023-01-21T04:25:33.599Z,1.33
2023-01-21T04:28:00.404Z,1.85
2023-01-21T04:30:27.190Z,1.90
2023-01-21T04:32:54.016Z,1.95
2023-01-21T04:35:20.823Z,1.50
2023-01-21T04:37:47.560Z,1.55
2023-01-21T04:40:14.821Z,2.40
2023-01-21T04:42:44.827Z,1.00
2023-01-21T04:45:11.758Z,1.25
2023-01-21T04:47:42.873Z,1.08
2023-01-21T04:50:11.584Z,1.10
2023-01-21T04:52:38.946Z,1.40
2023-01-21T04:55:06.392Z,1.70
2023-01-21T04:57:33.237Z,1.50
2023-01-21T04:59:59.987Z,1.00
2023-01-21T05:02:36.984Z,0.70
2023-01-21T05:05:07.253Z,1.08
2023-01-21T05:07:36.916Z,1.33
2023-01-21T05:10:16.472Z,1.42
2023-01-21T05:12:46.675Z,0.95
2023-01-21T05:15:13.422Z,1.23
2023-01-21T05:17:40.113Z,1.27
2023-01-21T05:20:07.187Z,1.35
2023-01-21T05:22:36.370Z,1.67
2023-01-21T05:25:05.241Z,1.38
2023-01-21T05:27:31.998Z,1.42
2023-01-21T05:29:58.755Z,1.30
2023-01-21T05:32:25.562Z,1.88
2023-01-21T05:34:52.356Z,1.20
2023-01-21T05:37:19.224Z,1.50
2023-01-21T05:39:45.954Z,1.00
2023-01-21T05:42:12.733Z,1.10
2023-01-21T05:44:39.415Z,1.23
2023-01-21T05:47:07.606Z,1.60
2023-01-21T05:49:35.369Z,1.38
2023-01-21T05:52:02.103Z,1.75
2023-01-21T05:54:28.793Z,1.15
2023-01-21T05:56:56.915Z,2.25
2023-01-21T05:59:23.709Z,1.15
2023-01-21T06:01:50.440Z,1.63
2023-01-21T06:04:17.141Z,1.10
2023-01-21T06:06:44.073Z,0.90
2023-01-21T06:09:10.917Z,1.10
2023-01-21T06:11:37.881Z,1.67
2023-01-21T06:14:04.586Z,1.08
2023-01-21T06:16:31.338Z,1.10
2023-01-21T06:18:59.131Z,1.00
2023-01-21T06:21:28.046Z,1.10
2023-01-21T06:23:56.731Z,1.08
2023-01-21T06:26:25.007Z,0.88
2023-01-21T06:28:52.867Z,1.02
2023-01-21T06:31:20.899Z,1.10
2023-01-21T06:33:47.743Z,1.58
2023-01-21T06:36:19.691Z,1.50
2023-01-21T06:38:46.602Z,1.30
2023-01-21T06:41:13.372Z,0.98
2023-01-21T06:43:40.185Z,1.50
2023-01-21T06:46:07.109Z,1.50
2023-01-21T06:48:33.980Z,3.30
2023-01-21T06:51:01.338Z,1.33
2023-01-21T06:53:28.114Z,1.48
2023-01-21T06:55:55.014Z,1.27
2023-01-21T06:58:21.767Z,1.30
2023-01-21T07:00:48.468Z,1.10
2023-01-21T07:03:15.309Z,1.50
2023-01-21T07:05:42.310Z,1.45
2023-01-21T07:08:09.109Z,1.30
2023-01-21T07:10:37.918Z,1.50
2023-01-21T07:13:04.619Z,1.35
2023-01-21T07:15:31.459Z,2.00
2023-01-21T07:17:58.198Z,2.13
2023-01-21T07:20:25.935Z,1.35
2023-01-21T07:22:52.785Z,1.55
2023-01-21T07:25:19.716Z,1.30
2023-01-21T07:27:46.439Z,1.23
2023-01-21T07:30:19.322Z,2.22
2023-01-21T07:32:46.925Z,1.63
2023-01-21T07:35:13.956Z,1.58
2023-01-21T07:37:43.018Z,1.92
2023-01-21T07:40:10.329Z,1.92
2023-01-21T07:42:38.463Z,1.80
2023-01-21T07:45:05.737Z,1.92
2023-01-21T07:47:36.093Z,2.13
2023-01-21T07:50:07.834Z,2.67
2023-01-21T07:52:34.870Z,2.25
2023-01-21T07:55:05.096Z,1.80
2023-01-21T07:57:34.518Z,2.00
2023-01-21T08:00:06.910Z,2.05
2023-01-21T08:02:38.188Z,2.30
2023-01-21T08:05:05.840Z,2.25
2023-01-21T08:07:36.827Z,1.90
2023-01-21T08:10:03.860Z,1.70
2023-01-21T08:12:30.574Z,2.08
2023-01-21T08:14:57.272Z,2.60
2023-01-21T08:17:24.026Z,2.13
2023-01-21T08:19:50.720Z,2.65
2023-01-21T08:22:17.414Z,2.67
2023-01-21T08:24:44.335Z,2.10
2023-01-21T08:27:11.084Z,1.60
2023-01-21T08:29:37.809Z,1.70
2023-01-21T08:32:04.820Z,2.28
2023-01-21T08:34:31.583Z,2.00
2023-01-21T08:36:58.361Z,2.13
2023-01-21T08:39:25.181Z,2.13
2023-01-21T08:41:51.850Z,2.55
2023-01-21T08:44:18.635Z,2.20
2023-01-21T08:46:45.833Z,1.92
2023-01-21T08:49:12.604Z,2.53
2023-01-21T08:51:39.803Z,1.95
2023-01-21T08:54:09.089Z,2.25
2023-01-21T08:56:38.275Z,1.90
2023-01-21T08:59:05.073Z,2.33
2023-01-21T09:01:33.770Z,1.98
2023-01-21T09:04:01.106Z,2.42
2023-01-21T09:06:30.209Z,2.05
2023-01-21T09:08:59.303Z,1.95
2023-01-21T09:11:26.857Z,2.35
2023-01-21T09:13:53.570Z,2.15
2023-01-21T09:16:22.694Z,2.42
2023-01-21T09:18:49.785Z,2.72
2023-01-21T09:21:16.796Z,2.75
2023-01-21T09:23:44.423Z,3.10
2023-01-21T09:26:22.368Z,2.70
2023-01-21T09:28:55.127Z,2.38
2023-01-21T09:31:23.465Z,2.50
2023-01-21T09:33:53.141Z,2.97
2023-01-21T09:36:22.291Z,2.95
2023-01-21T09:38:50.260Z,3.35
2023-01-21T09:41:29.140Z,3.00
2023-01-21T09:44:04.937Z,3.28
2023-01-21T09:46:40.491Z,2.83
2023-01-21T09:49:31.056Z,3.25
2023-01-21T09:52:02.404Z,3.72
2023-01-21T09:54:31.985Z,3.58
2023-01-21T09:57:17.727Z,3.05
2023-01-21T10:00:16.785Z,3.70
2023-01-21T10:03:04.663Z,3.65
2023-01-21T10:05:46.432Z,4.50
2023-01-21T10:08:47.518Z,4.88
2023-01-21T10:11:41.087Z,4.22
2023-01-21T10:14:13.384Z,5.18
2023-01-21T10:16:50.788Z,4.78
2023-01-21T10:19:24.446Z,5.43
2023-01-21T10:21:57.257Z,5.07
2023-01-21T10:24:33.097Z,6.70
2023-01-21T10:27:00.766Z,7.10
2023-01-21T10:29:28.436Z,9.80
2023-01-21T10:32:08.485Z,8.98
2023-01-21T10:34:41.738Z,9.00
2023-01-21T10:37:17.838Z,8.77
2023-01-21T10:39:44.487Z,8.90
2023-01-21T10:42:36.308Z,9.35
2023-01-21T10:45:24.925Z,10.40
2023-01-21T10:48:19.549Z,10.50
2023-01-21T10:50:56.221Z,11.93
2023-01-21T10:53:49.089Z,9.98
2023-01-21T10:56:15.771Z,8.60
2023-01-21T10:58:53.454Z,8.52
2023-01-21T11:01:43.444Z,9.57
2023-01-21T11:04:20.220Z,10.82
2023-01-21T11:07:00.332Z,9.95
2023-01-21T11:09:48.298Z,11.75
2023-01-21T11:12:20.438Z,10.73
2023-01-21T11:14:55.167Z,11.32
2023-01-21T11:17:36.781Z,10.77
2023-01-21T11:20:29.665Z,10.48
2023-01-21T11:22:56.426Z,11.00
2023-01-21T11:25:42.127Z,11.30
2023-01-21T11:28:26.470Z,9.30
2023-01-21T11:31:22.102Z,10.18
2023-01-21T11:33:49.036Z,10.00
2023-01-21T11:36:17.992Z,9.55
2023-01-21T11:38:47.444Z,10.43
2023-01-21T11:41:21.040Z,11.90
2023-01-21T11:43:53.774Z,11.30
2023-01-21T11:46:31.306Z,10.90
2023-01-21T11:49:15.947Z,9.50
2023-01-21T11:51:46.827Z,9.07
2023-01-21T11:54:23.974Z,10.13
2023-01-21T11:57:08.698Z,11.20
2023-01-21T11:59:41.736Z,12.15
2023-01-21T12:02:23.900Z,13.00
2023-01-21T12:05:09.253Z,14.38
2023-01-21T12:07:39.963Z,14.30
2023-01-21T12:13:08.306Z,9.65
2023-01-21T12:16:19.798Z,8.63
2023-01-21T12:19:04.796Z,11.18
2023-01-21T12:21:54.820Z,13.85
2023-01-21T12:24:39.372Z,12.55
2023-01-21T12:27:27.972Z,12.85
2023-01-21T12:30:38.447Z,12.93
2023-01-21T12:33:16.896Z,8.73
2023-01-21T12:35:51.593Z,7.93
2023-01-21T12:38:22.839Z,7.72
2023-01-21T12:41:26.568Z,8.80
2023-01-21T12:44:20.313Z,7.63
2023-01-21T12:46:50.890Z,5.88
2023-01-21T12:49:43.060Z,7.55
2023-01-21T12:52:26.990Z,6.95
2023-01-21T12:55:27.361Z,7.22
2023-01-21T12:57:57.754Z,8.48
2023-01-21T13:00:29.038Z,7.55
2023-01-21T13:03:10.608Z,8.90
2023-01-21T13:05:58.413Z,8.35
2023-01-21T13:08:44.983Z,8.93
2023-01-21T13:11:27.430Z,9.23
2023-01-21T13:14:09.499Z,8.93
2023-01-21T13:16:40.151Z,10.45
2023-01-21T13:21:41.340Z,11.90
2023-01-21T13:24:17.609Z,16.63
2023-01-21T13:26:57.218Z,19.75
2023-01-21T13:29:42.743Z,17.63
2023-01-21T13:32:37.463Z,18.25
2023-01-21T13:35:07.166Z,16.42
2023-01-21T13:37:44.888Z,13.33
2023-01-21T13:40:59.390Z,14.98
2023-01-21T13:43:34.914Z,14.73
2023-01-21T13:46:20.249Z,13.68
2023-01-21T13:49:11.885Z,12.77
2023-01-21T13:51:47.519Z,15.07
2023-01-21T13:54:29.366Z,16.77
2023-01-21T13:57:14.998Z,14.43
2023-01-21T13:59:58.964Z,17.02
2023-01-21T14:02:51.391Z,17.40
2023-01-21T14:05:30.664Z,16.98
2023-01-21T14:08:11.174Z,16.50
2023-01-21T14:10:59.215Z,15.98
2023-01-21T14:13:38.604Z,11.93
2023-01-21T14:16:39.786Z,11.68
2023-01-21T14:19:29.556Z,12.68
2023-01-21T14:22:12.495Z,13.70
2023-01-21T14:25:11.058Z,13.98
2023-01-21T14:27:49.640Z,13.25
2023-01-21T14:30:21.091Z,14.45
2023-01-21T14:32:56.915Z,15.30
2023-01-21T14:35:55.390Z,15.52
2023-01-21T14:38:28.472Z,18.00
2023-01-21T14:41:09.356Z,17.85
2023-01-21T14:43:36.737Z,18.85
2023-01-21T14:46:33.914Z,17.38
2023-01-21T14:49:06.319Z,16.20
2023-01-21T14:51:37.939Z,14.95
2023-01-21T14:54:10.701Z,14.57
2023-01-21T14:56:38.427Z,16.10
2023-01-21T14:59:32.794Z,19.52
2023-01-21T15:02:01.943Z,18.98
2023-01-21T15:04:31.853Z,19.13
2023-01-21T15:07:14.506Z,18.10
2023-01-21T15:09:51.404Z,25.77
2023-01-21T15:12:22.543Z,29.13
2023-01-21T15:14:50.071Z,32.78
2023-01-21T15:17:46.293Z,36.47
2023-01-21T15:20:39.468Z,38.28
2023-01-21T15:23:31.445Z,31.73
2023-01-21T15:26:05.680Z,24.17
2023-01-21T15:28:45.881Z,14.05
2023-01-21T15:31:36.034Z,14.50
2023-01-21T15:34:10.770Z,19.33
2023-01-21T15:36:47.002Z,18.20
2023-01-21T15:39:22.774Z,19.33
2023-01-21T15:42:27.825Z,20.40
2023-01-21T15:45:24.291Z,21.23
2023-01-21T15:48:08.917Z,23.90
2023-01-21T15:50:42.538Z,25.83
2023-01-21T15:53:28.462Z,25.33
2023-01-21T15:56:13.166Z,27.92
2023-01-21T15:59:08.687Z,27.73
2023-01-21T16:01:37.306Z,26.80
2023-01-21T16:04:06.930Z,28.90
2023-01-21T16:06:51.756Z,29.95
2023-01-21T16:09:52.476Z,27.35
2023-01-21T16:12:28.211Z,25.90
2023-01-21T16:15:16.487Z,25.92
2023-01-21T16:18:02.607Z,27.88
2023-01-21T16:20:32.371Z,27.40
2023-01-21T16:23:02.959Z,29.73
2023-01-21T16:25:29.725Z,31.88
2023-01-21T16:27:56.644Z,33.85
2023-01-21T16:30:31.714Z,35.08
2023-01-21T16:33:15.530Z,44.25
2023-01-21T16:35:56.219Z,40.70
2023-01-21T16:41:12.310Z,29.33
2023-01-21T16:43:51.285Z,27.05
2023-01-21T16:46:25.576Z,29.02
2023-01-21T16:48:57.935Z,32.45
2023-01-21T16:51:29.277Z,29.85
2023-01-21T16:54:17.860Z,32.83
2023-01-21T16:56:49.304Z,33.45
2023-01-21T16:59:26.670Z,35.10
2023-01-21T17:01:55.486Z,30.40
2023-01-21T17:04:22.370Z,29.88
2023-01-21T17:06:49.949Z,29.13
2023-01-21T17:09:25.570Z,25.52
2023-01-21T17:11:54.426Z,28.25
2023-01-21T17:14:26.641Z,23.83
2023-01-21T17:16:56.025Z,24.50
2023-01-21T17:19:43.865Z,23.52
2023-01-21T17:22:17.633Z,27.88
2023-01-21T17:25:12.754Z,26.55
2023-01-21T17:27:47.164Z,26.98
2023-01-21T17:30:33.500Z,25.27
2023-01-21T17:33:03.032Z,23.65
2023-01-21T17:35:33.430Z,26.10
2023-01-21T17:38:08.026Z,29.52
2023-01-21T17:41:03.834Z,28.13
2023-01-21T17:43:30.673Z,28.10
2023-01-21T17:45:58.048Z,30.67
2023-01-21T17:48:42.846Z,38.88
2023-01-21T17:51:18.974Z,35.83
2023-01-21T17:53:53.073Z,37.08
2023-01-21T17:56:39.602Z,37.88
2023-01-21T17:59:26.491Z,38.72
2023-01-21T18:01:55.141Z,34.85
2023-01-21T18:04:24.041Z,33.85
2023-01-21T18:06:52.775Z,31.58
2023-01-21T18:09:22.160Z,29.83
2023-01-21T18:11:51.264Z,26.98
2023-01-21T18:14:20.655Z,27.38
2023-01-21T18:16:48.317Z,27.25
2023-01-21T18:19:31.333Z,29.42
2023-01-21T18:21:58.755Z,33.83
2023-01-21T18:24:26.073Z,35.33
2023-01-21T18:26:53.109Z,36.25
2023-01-21T18:29:21.768Z,38.65
2023-01-21T18:31:52.167Z,38.75
2023-01-21T18:34:20.178Z,37.80
2023-01-21T18:36:46.966Z,36.20
2023-01-21T18:39:18.048Z,38.75
2023-01-21T18:41:45.884Z,52.97
2023-01-21T18:44:12.908Z,35.70
2023-01-21T18:46:44.026Z,40.40
2023-01-21T18:49:20.895Z,42.45
2023-01-21T18:51:47.934Z,45.90
2023-01-21T18:54:16.769Z,42.67
2023-01-21T18:56:45.314Z,20.88
2023-01-21T18:59:17.445Z,11.27
2023-01-21T19:01:44.828Z,8.50
2023-01-21T19:04:16.110Z,9.45
2023-01-21T19:06:44.193Z,10.15
2023-01-21T19:09:16.835Z,17.10
2023-01-21T19:11:43.793Z,11.82
2023-01-21T19:14:10.786Z,12.43
2023-01-21T19:16:38.922Z,32.53
2023-01-21T19:19:19.064Z,12.35
2023-01-21T19:21:46.654Z,13.60
2023-01-21T19:24:13.331Z,152.50
2023-01-21T19:26:40.168Z,37.90
2023-01-21T19:29:16.242Z,26.83
2023-01-21T19:31:43.220Z,20.15
2023-01-21T19:34:10.739Z,18.88
2023-01-21T19:36:39.273Z,17.50
2023-01-21T19:39:16.174Z,14.23
2023-01-21T19:41:42.965Z,9.82
2023-01-21T19:44:09.789Z,8.98
2023-01-21T19:46:37.064Z,9.15
2023-01-21T19:49:15.709Z,9.27
2023-01-21T19:51:43.961Z,10.88
2023-01-21T19:54:11.762Z,10.25
2023-01-21T19:56:40.930Z,12.55
2023-01-21T19:59:10.694Z,10.77
2023-01-21T20:01:37.820Z,10.90
2023-01-21T20:04:04.647Z,12.15
2023-01-21T20:06:37.617Z,18.88
2023-01-21T20:09:04.992Z,20.88
2023-01-21T20:11:31.744Z,23.77
2023-01-21T20:13:58.478Z,29.05
2023-01-21T20:16:26.772Z,24.73
2023-01-21T20:18:55.234Z,24.35
2023-01-21T20:21:22.039Z,22.75
2023-01-21T20:23:48.888Z,26.55
2023-01-21T20:26:24.823Z,24.42
2023-01-21T20:28:54.415Z,23.23
2023-01-21T20:31:21.365Z,29.08
2023-01-21T20:33:48.404Z,26.15
2023-01-21T20:36:19.947Z,25.90
2023-01-21T20:38:46.895Z,23.02
2023-01-21T20:41:13.645Z,31.33
2023-01-21T20:43:40.569Z,22.77
2023-01-21T20:46:23.784Z,27.40
2023-01-21T20:48:51.718Z,34.53
2023-01-21T20:51:18.797Z,27.23
2023-01-21T20:53:45.539Z,30.10
2023-01-21T20:56:26.704Z,30.52
2023-01-21T20:58:53.945Z,16.25
2023-01-21T21:01:22.474Z,13.30
2023-01-21T21:03:58.837Z,7.45
2023-01-21T21:06:28.692Z,8.18
2023-01-21T21:08:55.639Z,7.18
2023-01-21T21:11:22.978Z,9.38
2023-01-21T21:13:52.189Z,11.43
2023-01-21T21:16:28.612Z,10.23
2023-01-21T21:18:56.306Z,12.55
2023-01-21T21:21:24.068Z,15.15
2023-01-21T21:27:55.041Z,14.23
2023-01-21T21:30:27.230Z,15.93
2023-01-21T21:32:56.473Z,25.15
2023-01-21T21:35:46.940Z,26.88
2023-01-21T21:38:18.692Z,25.48
2023-01-21T21:40:47.422Z,24.30
2023-01-21T21:43:33.270Z,18.67
2023-01-21T21:46:28.807Z,19.20
2023-01-21T21:48:55.821Z,19.80
2023-01-21T21:51:24.314Z,20.15
2023-01-21T21:53:51.272Z,20.30
2023-01-21T21:56:22.512Z,17.02
2023-01-21T21:58:50.772Z,15.25
2023-01-21T22:01:23.032Z,19.42
2023-01-21T22:03:52.574Z,13.52
2023-01-21T22:06:20.885Z,8.45
2023-01-21T22:08:51.422Z,10.25
2023-01-21T22:11:20.182Z,8.02
2023-01-21T22:13:52.510Z,7.90
2023-01-21T22:16:24.064Z,10.48
2023-01-21T22:18:52.105Z,9.45
2023-01-21T22:21:20.344Z,8.70
2023-01-21T22:23:51.605Z,8.90
2023-01-21T22:26:21.476Z,10.40
2023-01-21T22:28:48.839Z,9.23
2023-01-21T22:31:20.321Z,9.80
2023-01-21T22:33:47.868Z,9.32
2023-01-21T22:36:17.142Z,8.13
2023-01-21T22:38:45.143Z,9.63
2023-01-21T22:41:19.387Z,10.25
2023-01-21T22:43:49.974Z,10.52
2023-01-21T22:46:21.458Z,10.90
2023-01-21T22:48:50.139Z,10.02
2023-01-21T22:51:19.759Z,9.85
2023-01-21T22:53:46.703Z,8.88
2023-01-21T22:56:15.717Z,9.93
2023-01-21T22:58:45.207Z,9.30
2023-01-21T23:01:32.705Z,8.52
2023-01-21T23:04:00.786Z,7.93
2023-01-21T23:06:28.014Z,7.13
2023-01-21T23:08:55.821Z,7.80
2023-01-21T23:11:22.636Z,8.00
2023-01-21T23:13:49.927Z,8.02
2023-01-21T23:16:19.098Z,9.02
2023-01-21T23:18:46.292Z,9.90
2023-01-21T23:21:19.325Z,10.35
2023-01-21T23:23:50.876Z,11.13
2023-01-21T23:26:20.711Z,12.57
2023-01-21T23:28:47.916Z,13.43
2023-01-21T23:31:17.832Z,12.40
2023-01-21T23:33:49.583Z,12.20
2023-01-21T23:36:16.591Z,11.95
2023-01-21T23:38:44.158Z,12.80
2023-01-21T23:41:13.871Z,13.00
2023-01-21T23:43:41.082Z,14.53
2023-01-21T23:46:14.617Z,12.75
2023-01-21T23:48:41.609Z,14.10
2023-01-21T23:51:12.275Z,14.20
2023-01-21T23:56:23.162Z,14.77
2023-01-21T23:58:53.347Z,14.88
